Scout — WCZ5277 — position and weather

sailwx.info

Track history (hours):
 
Tides and Currents Weather Stations Pressure Air Temp Water Temp Dewpoint Dewpoint Depression Visibility Wind Speed Wind Dir Waves Ship Positions

Scout

Owner: ERGON MARINE & INDUSTRIAL SUPPLY, VICKSBURG, MS. More information available from US FCC via Universal Licensing System.

Last reported at 2017-Aug-19 13:00 UTC. Time now 2017-Aug-19 13:24 UTC.
Position N 32°23' W 090°53'.

Length 14 m.

Type: Towing. MMSI: 367402890.

Date/timePositionNaut miles runAvg speedWind from/ knotsBaromVisibWave heightAir tempDewpointWater temp
2017-Aug-19 13:00N 32°23' W 090°53'1 2.2
2017-Aug-19 12:30N 32°22' W 090°53'2 3.1
2017-Aug-19 12:00N 32°20' W 090°54'1 1.7
2017-Aug-19 11:29N 32°20' W 090°54'0 0.0
2017-Aug-19 11:00N 32°20' W 090°54'1 2.0
2017-Aug-19 10:30N 32°21' W 090°54'3 5.2
2017-Aug-19 10:00N 32°23' W 090°53'0 0.0
2017-Aug-19 09:30N 32°23' W 090°53'0 0.0
2017-Aug-19 09:00N 32°23' W 090°53'0 0.0
2017-Aug-19 08:30N 32°23' W 090°53'0 0.0
2017-Aug-19 08:00N 32°23' W 090°53'0 0.2
2017-Aug-19 07:30N 32°23' W 090°53'1 2.1
2017-Aug-19 07:00N 32°23' W 090°52'3 5.2
2017-Aug-19 06:30N 32°20' W 090°54'3 6.7
2017-Aug-19 06:00N 32°21' W 090°58'2 4.6
2017-Aug-19 05:30N 32°20' W 090°55'2 4.4
2017-Aug-19 05:00N 32°18' W 090°55'0 0.3
2017-Aug-19 04:30N 32°18' W 090°55'2 3.4
2017-Aug-19 04:00N 32°20' W 090°54'  
Track history (hours):
 
Tides and Currents Weather Stations Pressure Air Temp Water Temp Dewpoint Dewpoint Depression Visibility Wind Speed Wind Dir Waves Ship Positions

Scout

Owner: ERGON MARINE & INDUSTRIAL SUPPLY, VICKSBURG, MS. More information available from US FCC via Universal Licensing System.

Last reported at 2017-Aug-19 13:00 UTC. Time now 2017-Aug-19 13:24 UTC.
Position N 32°23' W 090°53'.

Length 14 m.

Type: Towing. MMSI: 367402890.

Date/timePositionNaut miles runAvg speedWind from/ knotsBaromVisibWave heightAir tempDewpointWater temp
2017-Aug-19 13:00N 32°23' W 090°53'1 2.2
2017-Aug-19 12:30N 32°22' W 090°53'2 3.1
2017-Aug-19 12:00N 32°20' W 090°54'1 1.7
2017-Aug-19 11:29N 32°20' W 090°54'0 0.0
2017-Aug-19 11:00N 32°20' W 090°54'1 2.0
2017-Aug-19 10:30N 32°21' W 090°54'3 5.2
2017-Aug-19 10:00N 32°23' W 090°53'0 0.0
2017-Aug-19 09:30N 32°23' W 090°53'0 0.0
2017-Aug-19 09:00N 32°23' W 090°53'0 0.0
2017-Aug-19 08:30N 32°23' W 090°53'0 0.0
2017-Aug-19 08:00N 32°23' W 090°53'0 0.2
2017-Aug-19 07:30N 32°23' W 090°53'1 2.1
2017-Aug-19 07:00N 32°23' W 090°52'3 5.2
2017-Aug-19 06:30N 32°20' W 090°54'3 6.7
2017-Aug-19 06:00N 32°21' W 090°58'2 4.6
2017-Aug-19 05:30N 32°20' W 090°55'2 4.4
2017-Aug-19 05:00N 32°18' W 090°55'0 0.3
2017-Aug-19 04:30N 32°18' W 090°55'2 3.4
2017-Aug-19 04:00N 32°20' W 090°54'  

Dump ship's entire track history